South Reno (Wolf Run), Nevada Weather observations

Data are for observation ending at time listed.
 Day   Time    Ave.   Ave.  Ave.  Vector   Max.   Stn.    Total    Solar   Ave.  
  of    of     Air    Rel.  Wind   Wind    Wind   Baro.  Precip.   Rad.    Soil  
Year   Day     Temp.  Hum.  Speed  Dir.    Gust   Pres.                    Temp. 
2015   (PST)    F      %     mph   deg.    mph     mb.     in.     W/m2     F   
------------------------------------------------------------------------------
  90    6:30   55.7    12   12.4   177     19.5  99999.0    0.00      96    50.5
  90    6:40   55.9    13   12.6   168     23.1  99999.0    0.00     142    50.4
  90    6:50   56.1    13   14.9   167     24.4  99999.0    0.00     179    50.4
  90    7:00   56.4    13   14.9   163     22.3  99999.0    0.00     211    50.3
  90    7:10   56.5    13   14.6   166     23.0  99999.0    0.00     243    50.3
  90    7:20   56.8    13   15.5   164     25.5  99999.0    0.00     279    50.3
  90    7:30   57.1    13   15.2   166     26.5  99999.0    0.00     315    50.2
  90    7:40   57.2    13   16.1   168     25.4  99999.0    0.00     351    50.2
  90    7:50   57.6    13   14.4   166     23.2  99999.0    0.00     385    50.1
  90    8:00   57.9    14   13.5   167     21.2  99999.0    0.00     418    50.1
  90    8:10   58.2    14   14.5   159     22.3  99999.0    0.00     450    50.0
  90    8:20   58.3    14   14.8   153     22.9  99999.0    0.00     483    50.0
  90    8:30   59.2    14   13.8   150     22.6  99999.0    0.00     514    50.0
  90    8:40   59.1    14   15.0   149     22.1  99999.0    0.00     542    49.9
  90    8:50   59.2    14   15.9   147     27.4  99999.0    0.00     574    49.9
  90    9:00   59.6    14   16.5   149     27.2  99999.0    0.00     598    49.9
  90    9:10   59.7    14   17.4   146     27.7  99999.0    0.00     624    49.9
  90    9:20   60.5    14   15.6   160     24.4  99999.0    0.00     650    49.9
  90    9:30   60.9    14   13.9   158     27.7  99999.0    0.00     673    49.9
  90    9:40   60.9    14   14.9   167     25.5  99999.0    0.00     702    49.9
  90    9:50   60.5    14   16.3   156     25.4  99999.0    0.00     728    49.9
  90   10:00   61.0    14   14.0   162     24.3  99999.0    0.00     751    49.9
  90   10:10   61.3    14   14.4   167     23.8  99999.0    0.00     774    50.0
  90   10:20   61.4    14   16.9   157     33.1  99999.0    0.00     790    50.0
  90   10:30   61.7    14   14.2   162     26.3  99999.0    0.00     812    50.0
  90   10:40   62.8    11    7.0   179     28.1  99999.0    0.00     827    50.1
  90   10:50   62.9    12    8.6   239     24.8  99999.0    0.00     841    50.1
  90   11:00   63.4    12    5.5   162     15.1  99999.0    0.00     851    50.1
  90   11:10   62.6    14   12.2   182     21.2  99999.0    0.00     862    50.2
  90   11:20   62.1    16   12.8   165     21.6  99999.0    0.00     873    50.3
  90   11:30   61.6    16   15.4   144     23.2  99999.0    0.00     884    50.3
  90   11:40   62.9    14    8.5   233     16.9  99999.0    0.00     893    50.4
  90   11:50   63.1    13    8.4   221     20.3  99999.0    0.00     898    50.5
  90   12:00   63.0    12   10.1   213     24.9  99999.0    0.00     903    50.6
  90   12:10   63.1    11    9.0   221     19.5  99999.0    0.00     905    50.7
  90   12:20   63.5    11    8.2   236     20.6  99999.0    0.00     903    50.8
  90   12:30   63.6    11   11.5   206     23.4  99999.0    0.00     904    50.9
  90   12:40   63.4    11    9.2   191     19.6  99999.0    0.00     900    51.0
  90   12:50   63.2    10   11.3   244     27.5  99999.0    0.00     900    51.1
  90   13:00   62.9     9   11.7   235     26.0  99999.0    0.00     892    51.2
  90   13:10   62.7     9   13.8   239     29.2  99999.0    0.00     892    51.4
  90   13:20   62.5     9   14.5   228     30.9  99999.0    0.00     878    51.5
  90   13:30   62.5     8   11.2   218     24.8  99999.0    0.00     860    51.6
  90   13:40   62.9     9   13.5   216     25.9  99999.0    0.00     855    51.7
  90   13:50   62.8    10   13.2   226     28.3  99999.0    0.00     838    51.8
  90   14:00   62.6    10   13.2   219     28.0  99999.0    0.00     815    51.9
  90   14:10   62.4    10   13.4   232     26.2  99999.0    0.00     801    52.0
  90   14:20   63.5     9    8.8   227     27.4  99999.0    0.00     783    52.1
  90   14:30   62.5     9   15.0   236     40.1  99999.0    0.00     765    52.2
  90   14:40   62.1     8   16.1   232     39.6  99999.0    0.00     743    52.3
  90   14:50   62.4     8    9.7   229     23.0  99999.0    0.00     718    52.4
  90   15:00   62.7     8   11.0   229     29.4  99999.0    0.00     692    52.5
  90   15:10   62.2     9   10.1   236     27.6  99999.0    0.00     663    52.5
  90   15:20   62.4     9    7.6   234     19.0  99999.0    0.00     633    52.6
  90   15:30   61.7     8    7.9   228     19.7  99999.0    0.00     605    52.7
  90   15:40   61.8     8    7.9   224     18.6  99999.0    0.00     574    52.7
  90   15:50   61.6     8    8.9   256     27.5  99999.0    0.00     543    52.8
  90   16:00   61.4     8    8.0   204     18.7  99999.0    0.00     508    52.8
  90   16:10   61.7     9    5.8   268     14.6  99999.0    0.00     475    52.9
  90   16:20   61.5    10    7.4   330     19.0  99999.0    0.00     438    52.9
  90   16:30   61.0    12    5.9   102     12.2  99999.0    0.00     398    53.0
  90   16:40   60.9    13    6.3   125     15.8  99999.0    0.00     364    53.0
  90   16:50   59.3    15   10.4   192     21.7  99999.0    0.00     323    53.0
  90   17:00   58.6    16    7.2   297     13.7  99999.0    0.00     282    53.1
  90   17:10   58.2    18    5.6   250     15.5  99999.0    0.00     242    53.1
  90   17:20   57.2    20    6.8   293     13.2  99999.0    0.00     111    53.1
  90   17:30   56.1    21    9.2   284     17.5  99999.0    0.00      85    53.1
  90   17:40   55.3    24    6.1   288     12.8  99999.0    0.00      80    53.1
  90   17:50   53.9    26    7.0   307     13.1  99999.0    0.00      31    53.1
  90   18:00   52.5    29    8.9   316     17.0  99999.0    0.00      23    53.1
  90   18:10   51.2    30    7.5   304     12.2  99999.0    0.00      16    53.1
  90   18:20   50.8    31    8.9   304     14.7  99999.0    0.00       9    53.1
  90   18:30   50.0    32    8.2   290     16.1  99999.0    0.00       4    53.0
  90   18:40   49.3    33    9.2   285     15.7  99999.0    0.00       1    53.0
  90   18:50   48.6    32    9.0   285     18.4  99999.0    0.00       0    53.0
  90   19:00   48.6    32   11.6   301     18.8  99999.0    0.00       0    52.9
  90   19:10   47.9    34    9.6   307     17.0  99999.0    0.00       0    52.9
  90   19:20   47.2    36    8.5   275     12.8  99999.0    0.00       0    52.8
  90   19:30   46.9    38    5.3   292     14.4  99999.0    0.00       0    52.8
  90   19:40   47.0    35    5.2   129      8.6  99999.0    0.00       0    52.7
  90   19:50   46.2    38    3.3   323      5.8  99999.0    0.00       0    52.7
  90   20:00   44.7    45    7.4   343     14.2  99999.0    0.00       0    52.6
  90   20:10   44.8    44    8.9   329     18.0  99999.0    0.00       0    52.5
  90   20:20   44.2    44    7.4   359     16.3  99999.0    0.00       0    52.5
  90   20:30   43.7    43    7.5   353     12.7  99999.0    0.00       0    52.4
  90   20:40   43.4    42    9.4   336     17.1  99999.0    0.00       0    52.3
  90   20:50   43.3    42   10.6   315     18.1  99999.0    0.00       0    52.3
  90   21:00   43.0    41   10.1   313     16.8  99999.0    0.00       0    52.2
  90   21:10   43.1    40    9.0   323     14.7  99999.0    0.00       0    52.1
  90   21:20   43.2    39    7.1   324     13.7  99999.0    0.00       0    52.1
  90   21:30   43.0    39    6.7   314     13.2  99999.0    0.00       0    52.0
  90   21:40   42.4    38    3.8   339      7.2  99999.0    0.00       0    51.9
  90   21:50   42.1    38    3.2   360      5.9  99999.0    0.00       0    51.8
  90   22:00   41.8    38    4.6     7      7.8  99999.0    0.00       0    51.8
  90   22:10   41.5    40    3.8    43      5.4  99999.0    0.00       0    51.7
  90   22:20   40.2    46    4.5     8      8.6  99999.0    0.00       0    51.6
  90   22:30   39.0    50    3.5     2      4.9  99999.0    0.00       0    51.5
  90   22:40   38.3    52    4.6   354     11.0  99999.0    0.00       0    51.5
  90   22:50   39.7    49    8.3     9     13.6  99999.0    0.00       0    51.4
  90   23:00   39.2    52    5.2   352      9.6  99999.0    0.00       0    51.3
  90   23:10   38.2    54    5.4   332     11.5  99999.0    0.00       0    51.3
  90   23:20   37.7    55    6.2   336      9.9  99999.0    0.00       0    51.2
  90   23:30   37.5    56    7.5   314     11.2  99999.0    0.00       0    51.1
  90   23:40   37.3    56    7.1   317     10.7  99999.0    0.00       0    51.0
  90   23:50   36.9    57    7.1   317     10.7  99999.0    0.00       0    51.0
  91    0:00   36.5    57    6.0   316      9.5  99999.0    0.00       0    50.9
  91    0:10   36.2    57    6.0   320     11.5  99999.0    0.00       0    50.8
  91    0:20   35.9    58    5.4   304      9.7  99999.0    0.00       0    50.8
  91    0:30   36.1    56    5.2   306      9.8  99999.0    0.00       0    50.7
  91    0:40   35.6    56    4.5   307      7.0  99999.0    0.00       0    50.6
  91    0:50   35.0    58    3.7   291      5.9  99999.0    0.00       0    50.6
  91    1:00   34.8    58    3.9   290      5.8  99999.0    0.00       0    50.5
  91    1:10   34.3    60    3.5   292      5.8  99999.0    0.00       0    50.4
  91    1:20   33.9    60    2.7   285      4.1  99999.0    0.00       0    50.3
  91    1:30   33.7    60    2.0   300      5.2  99999.0    0.00       0    50.3
  91    1:40   32.8    60    0.9   233      2.8  99999.0    0.00       0    50.2
  91    1:50   31.1    63    2.4   232      3.7  99999.0    0.00       0    50.1
  91    2:00   30.2    66    2.9   222      4.3  99999.0    0.00       0    50.1
  91    2:10   31.1    63    3.3   181      5.7  99999.0    0.00       0    50.0
  91    2:20   31.1    62    3.9   223      5.7  99999.0    0.00       0    49.9
  91    2:30   29.4    65    3.7   232      5.2  99999.0    0.00       0    49.9
  91    2:40   29.4    65    3.3   231      5.1  99999.0    0.00       0    49.8
  91    2:50   30.3    62    5.6   236      7.4  99999.0    0.00       0    49.7
  91    3:00   30.6    61    5.9   233      7.3  99999.0    0.00       0    49.6
  91    3:10   30.4    61    4.8   232      6.7  99999.0    0.00       0    49.6
  91    3:20   30.4    61    3.9   237      6.0  99999.0    0.00       0    49.5
  91    3:30   30.8    59    5.1   233      7.2  99999.0    0.00       0    49.4
  91    3:40   30.9    59    4.9   234      6.8  99999.0    0.00       0    49.4
  91    3:50   30.8    58    3.7   220      5.8  99999.0    0.00       0    49.3
  91    4:00   30.9    58    4.7   230      7.6  99999.0    0.00       0    49.2
  91    4:10   30.0    60    5.9   233      8.0  99999.0    0.00       0    49.2
  91    4:20   30.2    60    4.9   247      7.2  99999.0    0.00       0    49.1
  91    4:30   30.6    59    3.4   249      6.5  99999.0    0.00       0    49.0
  91    4:40   29.7    61    3.1   259      5.3  99999.0    0.00       0    49.0
  91    4:50   29.4    62    3.5   260      6.3  99999.0    0.00       0    48.9
  91    5:00   29.5    61    3.0   258      5.0  99999.0    0.00       0    48.8
  91    5:10   29.4    62    3.4   257      5.6  99999.0    0.00       0    48.8
  91    5:20   29.5    63    3.4   253      6.1  99999.0    0.00       0    48.7
  91    5:30   29.7    66    3.9   240      6.1  99999.0    0.00       0    48.6
  91    5:40   29.6    68    3.8   251      5.9  99999.0    0.00       1    48.6
  91    5:50   29.8    67    3.3   250      5.2  99999.0    0.00       6    48.5
  91    6:00   29.8    66    3.6   252      5.6  99999.0    0.00      15    48.4
  91    6:10   30.6    63    3.9   253      5.3  99999.0    0.00      42    48.3
  91    6:20   32.3    60    1.6   264      3.5  99999.0    0.00      72    48.3

Return to South Reno, Nevada graphs page.


Western Regional Climate Center,wrcc@dri.edu